sensor_id;sensor_type;location;lat;lon;timestamp;P1;durP1;ratioP1;P2;durP2;ratioP2
48881;SDS011;57063;51.406;-2.402;2023-08-21T00:00:03;5.82;;;1.23;;
48881;SDS011;57063;51.406;-2.402;2023-08-21T00:02:29;7.03;;;1.58;;
48881;SDS011;57063;51.406;-2.402;2023-08-21T00:04:54;4.50;;;1.95;;
48881;SDS011;57063;51.406;-2.402;2023-08-21T00:07:20;5.28;;;1.50;;
48881;SDS011;57063;51.406;-2.402;2023-08-21T00:09:45;6.05;;;1.80;;
48881;SDS011;57063;51.406;-2.402;2023-08-21T00:12:11;10.50;;;2.22;;
48881;SDS011;57063;51.406;-2.402;2023-08-21T00:14:36;3.67;;;2.42;;
48881;SDS011;57063;51.406;-2.402;2023-08-21T00:17:02;6.53;;;2.20;;
48881;SDS011;57063;51.406;-2.402;2023-08-21T00:19:31;4.60;;;2.10;;
48881;SDS011;57063;51.406;-2.402;2023-08-21T00:21:57;5.97;;;2.55;;
48881;SDS011;57063;51.406;-2.402;2023-08-21T00:24:22;5.40;;;1.80;;
48881;SDS011;57063;51.406;-2.402;2023-08-21T00:26:48;6.50;;;2.05;;
48881;SDS011;57063;51.406;-2.402;2023-08-21T00:29:13;4.53;;;1.90;;
48881;SDS011;57063;51.406;-2.402;2023-08-21T00:31:39;6.20;;;2.42;;
48881;SDS011;57063;51.406;-2.402;2023-08-21T00:34:07;5.60;;;2.08;;
48881;SDS011;57063;51.406;-2.402;2023-08-21T00:36:32;3.75;;;1.63;;
48881;SDS011;57063;51.406;-2.402;2023-08-21T00:38:58;5.57;;;2.03;;
48881;SDS011;57063;51.406;-2.402;2023-08-21T00:41:23;3.47;;;1.80;;
48881;SDS011;57063;51.406;-2.402;2023-08-21T00:43:49;3.42;;;1.77;;
48881;SDS011;57063;51.406;-2.402;2023-08-21T00:46:14;2.85;;;1.75;;
48881;SDS011;57063;51.406;-2.402;2023-08-21T00:48:42;3.42;;;1.80;;
48881;SDS011;57063;51.406;-2.402;2023-08-21T00:51:08;2.60;;;2.00;;
48881;SDS011;57063;51.406;-2.402;2023-08-21T00:53:35;3.03;;;1.95;;
48881;SDS011;57063;51.406;-2.402;2023-08-21T00:56:01;6.15;;;2.30;;
48881;SDS011;57063;51.406;-2.402;2023-08-21T00:58:27;7.38;;;2.55;;
48881;SDS011;57063;51.406;-2.402;2023-08-21T01:00:53;6.88;;;3.00;;
48881;SDS011;57063;51.406;-2.402;2023-08-21T01:03:19;8.85;;;3.22;;
48881;SDS011;57063;51.406;-2.402;2023-08-21T01:05:44;8.07;;;2.58;;
48881;SDS011;57063;51.406;-2.402;2023-08-21T01:08:11;8.88;;;2.70;;
48881;SDS011;57063;51.406;-2.402;2023-08-21T01:10:45;8.63;;;3.03;;
48881;SDS011;57063;51.406;-2.402;2023-08-21T01:15:52;6.95;;;2.90;;
48881;SDS011;57063;51.406;-2.402;2023-08-21T01:18:20;8.75;;;2.95;;
48881;SDS011;57063;51.406;-2.402;2023-08-21T01:20:47;4.85;;;2.38;;
48881;SDS011;57063;51.406;-2.402;2023-08-21T01:28:20;5.90;;;3.13;;
48881;SDS011;57063;51.406;-2.402;2023-08-21T01:30:45;5.53;;;3.25;;
48881;SDS011;57063;51.406;-2.402;2023-08-21T01:33:13;3.38;;;2.60;;
48881;SDS011;57063;51.406;-2.402;2023-08-21T01:35:41;5.78;;;3.20;;
48881;SDS011;57063;51.406;-2.402;2023-08-21T01:38:07;5.38;;;2.97;;
48881;SDS011;57063;51.406;-2.402;2023-08-21T01:40:33;8.68;;;4.20;;
48881;SDS011;57063;51.406;-2.402;2023-08-21T01:42:58;6.65;;;3.42;;
48881;SDS011;57063;51.406;-2.402;2023-08-21T01:45:24;9.80;;;3.33;;
48881;SDS011;57063;51.406;-2.402;2023-08-21T01:47:49;8.90;;;3.58;;
48881;SDS011;57063;51.406;-2.402;2023-08-21T01:50:14;7.18;;;3.80;;
48881;SDS011;57063;51.406;-2.402;2023-08-21T01:52:40;7.85;;;4.30;;
48881;SDS011;57063;51.406;-2.402;2023-08-21T01:55:05;8.32;;;4.28;;
48881;SDS011;57063;51.406;-2.402;2023-08-21T01:57:35;8.35;;;3.78;;
48881;SDS011;57063;51.406;-2.402;2023-08-21T02:00:01;8.93;;;4.68;;
48881;SDS011;57063;51.406;-2.402;2023-08-21T02:02:28;6.70;;;4.10;;
48881;SDS011;57063;51.406;-2.402;2023-08-21T02:04:54;10.18;;;4.72;;
48881;SDS011;57063;51.406;-2.402;2023-08-21T02:07:19;10.95;;;4.97;;
48881;SDS011;57063;51.406;-2.402;2023-08-21T02:09:44;7.72;;;4.38;;
48881;SDS011;57063;51.406;-2.402;2023-08-21T02:12:10;9.80;;;5.00;;
48881;SDS011;57063;51.406;-2.402;2023-08-21T02:14:35;10.57;;;5.68;;
48881;SDS011;57063;51.406;-2.402;2023-08-21T02:17:00;11.95;;;5.93;;
48881;SDS011;57063;51.406;-2.402;2023-08-21T02:19:27;15.55;;;6.72;;
48881;SDS011;57063;51.406;-2.402;2023-08-21T02:21:52;18.05;;;6.25;;
48881;SDS011;57063;51.406;-2.402;2023-08-21T02:24:18;12.07;;;5.72;;
48881;SDS011;57063;51.406;-2.402;2023-08-21T02:26:43;20.38;;;7.55;;
48881;SDS011;57063;51.406;-2.402;2023-08-21T02:29:10;15.55;;;6.97;;
48881;SDS011;57063;51.406;-2.402;2023-08-21T02:31:36;13.05;;;6.05;;
48881;SDS011;57063;51.406;-2.402;2023-08-21T02:34:01;12.63;;;6.30;;
48881;SDS011;57063;51.406;-2.402;2023-08-21T02:36:27;14.95;;;7.38;;
48881;SDS011;57063;51.406;-2.402;2023-08-21T02:38:52;18.20;;;6.70;;
48881;SDS011;57063;51.406;-2.402;2023-08-21T02:41:18;12.20;;;6.47;;
48881;SDS011;57063;51.406;-2.402;2023-08-21T02:43:43;13.27;;;5.93;;
48881;SDS011;57063;51.406;-2.402;2023-08-21T02:46:09;19.50;;;6.30;;
48881;SDS011;57063;51.406;-2.402;2023-08-21T02:48:34;14.02;;;5.57;;
48881;SDS011;57063;51.406;-2.402;2023-08-21T02:51:00;10.65;;;5.70;;
48881;SDS011;57063;51.406;-2.402;2023-08-21T02:53:27;11.15;;;5.65;;
48881;SDS011;57063;51.406;-2.402;2023-08-21T02:55:53;12.80;;;6.20;;
48881;SDS011;57063;51.406;-2.402;2023-08-21T02:58:18;14.38;;;4.53;;
48881;SDS011;57063;51.406;-2.402;2023-08-21T03:00:43;9.23;;;4.30;;
48881;SDS011;57063;51.406;-2.402;2023-08-21T03:03:09;9.43;;;4.97;;
48881;SDS011;57063;51.406;-2.402;2023-08-21T03:05:36;8.95;;;4.40;;
48881;SDS011;57063;51.406;-2.402;2023-08-21T03:08:01;11.13;;;4.55;;
48881;SDS011;57063;51.406;-2.402;2023-08-21T03:10:27;13.05;;;4.88;;
48881;SDS011;57063;51.406;-2.402;2023-08-21T03:12:54;8.32;;;4.22;;
48881;SDS011;57063;51.406;-2.402;2023-08-21T03:15:19;11.75;;;5.30;;
48881;SDS011;57063;51.406;-2.402;2023-08-21T03:17:45;8.13;;;4.32;;
48881;SDS011;57063;51.406;-2.402;2023-08-21T03:20:10;8.82;;;4.82;;
48881;SDS011;57063;51.406;-2.402;2023-08-21T03:22:36;8.90;;;4.82;;
48881;SDS011;57063;51.406;-2.402;2023-08-21T03:25:01;9.32;;;4.50;;
48881;SDS011;57063;51.406;-2.402;2023-08-21T03:27:27;9.00;;;4.18;;
48881;SDS011;57063;51.406;-2.402;2023-08-21T03:29:53;16.95;;;4.93;;
48881;SDS011;57063;51.406;-2.402;2023-08-21T03:32:18;10.13;;;4.85;;
48881;SDS011;57063;51.406;-2.402;2023-08-21T03:34:44;10.25;;;4.57;;
48881;SDS011;57063;51.406;-2.402;2023-08-21T03:37:10;10.13;;;3.95;;
48881;SDS011;57063;51.406;-2.402;2023-08-21T03:39:35;9.18;;;4.10;;
48881;SDS011;57063;51.406;-2.402;2023-08-21T03:42:01;10.38;;;3.80;;
48881;SDS011;57063;51.406;-2.402;2023-08-21T03:44:26;12.25;;;4.50;;
48881;SDS011;57063;51.406;-2.402;2023-08-21T03:46:51;7.85;;;3.78;;
48881;SDS011;57063;51.406;-2.402;2023-08-21T03:49:17;6.55;;;3.40;;
48881;SDS011;57063;51.406;-2.402;2023-08-21T03:51:42;7.10;;;3.70;;
48881;SDS011;57063;51.406;-2.402;2023-08-21T03:54:08;11.80;;;3.20;;
48881;SDS011;57063;51.406;-2.402;2023-08-21T03:56:34;5.10;;;2.90;;
48881;SDS011;57063;51.406;-2.402;2023-08-21T03:58:59;10.35;;;3.80;;
48881;SDS011;57063;51.406;-2.402;2023-08-21T04:01:25;7.45;;;3.15;;
48881;SDS011;57063;51.406;-2.402;2023-08-21T04:03:50;9.50;;;3.65;;
48881;SDS011;57063;51.406;-2.402;2023-08-21T04:06:16;9.57;;;4.38;;
48881;SDS011;57063;51.406;-2.402;2023-08-21T04:08:41;9.45;;;3.03;;
48881;SDS011;57063;51.406;-2.402;2023-08-21T04:11:06;7.75;;;3.20;;
48881;SDS011;57063;51.406;-2.402;2023-08-21T04:13:32;9.20;;;3.13;;
48881;SDS011;57063;51.406;-2.402;2023-08-21T04:15:57;4.82;;;2.80;;
48881;SDS011;57063;51.406;-2.402;2023-08-21T04:18:23;12.00;;;2.70;;
48881;SDS011;57063;51.406;-2.402;2023-08-21T04:20:49;7.50;;;2.47;;
48881;SDS011;57063;51.406;-2.402;2023-08-21T04:23:15;10.48;;;2.40;;
48881;SDS011;57063;51.406;-2.402;2023-08-21T04:25:40;6.90;;;2.35;;
48881;SDS011;57063;51.406;-2.402;2023-08-21T04:28:06;3.28;;;2.03;;
48881;SDS011;57063;51.406;-2.402;2023-08-21T04:30:32;8.07;;;2.65;;
48881;SDS011;57063;51.406;-2.402;2023-08-21T04:32:58;5.00;;;2.05;;
48881;SDS011;57063;51.406;-2.402;2023-08-21T04:35:24;5.22;;;2.00;;
48881;SDS011;57063;51.406;-2.402;2023-08-21T04:37:49;4.57;;;1.83;;
48881;SDS011;57063;51.406;-2.402;2023-08-21T04:40:15;3.83;;;1.50;;
48881;SDS011;57063;51.406;-2.402;2023-08-21T04:42:42;6.15;;;2.22;;
48881;SDS011;57063;51.406;-2.402;2023-08-21T04:45:09;5.53;;;2.28;;
48881;SDS011;57063;51.406;-2.402;2023-08-21T04:47:34;5.38;;;1.80;;
48881;SDS011;57063;51.406;-2.402;2023-08-21T04:50:00;5.57;;;1.80;;
48881;SDS011;57063;51.406;-2.402;2023-08-21T04:52:25;4.57;;;2.20;;
48881;SDS011;57063;51.406;-2.402;2023-08-21T04:54:51;3.30;;;1.77;;
48881;SDS011;57063;51.406;-2.402;2023-08-21T04:57:17;6.00;;;1.55;;
48881;SDS011;57063;51.406;-2.402;2023-08-21T04:59:43;5.53;;;2.17;;
48881;SDS011;57063;51.406;-2.402;2023-08-21T05:02:08;8.63;;;2.00;;
48881;SDS011;57063;51.406;-2.402;2023-08-21T05:04:35;8.10;;;2.13;;
48881;SDS011;57063;51.406;-2.402;2023-08-21T05:07:01;5.25;;;1.95;;
48881;SDS011;57063;51.406;-2.402;2023-08-21T05:09:26;3.72;;;1.88;;
48881;SDS011;57063;51.406;-2.402;2023-08-21T05:11:53;6.50;;;1.67;;
48881;SDS011;57063;51.406;-2.402;2023-08-21T05:14:20;8.20;;;2.10;;
48881;SDS011;57063;51.406;-2.402;2023-08-21T05:16:46;7.05;;;1.95;;
48881;SDS011;57063;51.406;-2.402;2023-08-21T05:19:11;1.98;;;1.40;;
48881;SDS011;57063;51.406;-2.402;2023-08-21T05:21:37;4.82;;;1.70;;
48881;SDS011;57063;51.406;-2.402;2023-08-21T05:24:03;6.00;;;1.58;;
48881;SDS011;57063;51.406;-2.402;2023-08-21T05:26:28;6.93;;;1.80;;
48881;SDS011;57063;51.406;-2.402;2023-08-21T05:28:53;8.30;;;1.85;;
48881;SDS011;57063;51.406;-2.402;2023-08-21T05:31:19;10.02;;;1.63;;
48881;SDS011;57063;51.406;-2.402;2023-08-21T05:33:44;9.10;;;1.50;;
48881;SDS011;57063;51.406;-2.402;2023-08-21T05:36:10;4.65;;;2.05;;
48881;SDS011;57063;51.406;-2.402;2023-08-21T05:38:35;6.30;;;2.08;;
48881;SDS011;57063;51.406;-2.402;2023-08-21T05:41:01;7.25;;;1.98;;
48881;SDS011;57063;51.406;-2.402;2023-08-21T05:43:26;7.43;;;1.90;;
48881;SDS011;57063;51.406;-2.402;2023-08-21T05:45:55;4.78;;;1.65;;
48881;SDS011;57063;51.406;-2.402;2023-08-21T05:48:20;8.85;;;2.25;;
48881;SDS011;57063;51.406;-2.402;2023-08-21T05:50:50;3.60;;;1.50;;
48881;SDS011;57063;51.406;-2.402;2023-08-21T05:53:16;5.22;;;1.85;;
48881;SDS011;57063;51.406;-2.402;2023-08-21T05:55:41;2.40;;;2.03;;
48881;SDS011;57063;51.406;-2.402;2023-08-21T05:58:06;7.68;;;2.53;;
48881;SDS011;57063;51.406;-2.402;2023-08-21T06:00:33;5.60;;;2.42;;
48881;SDS011;57063;51.406;-2.402;2023-08-21T06:02:59;8.73;;;1.80;;
48881;SDS011;57063;51.406;-2.402;2023-08-21T06:05:24;4.82;;;1.90;;
48881;SDS011;57063;51.406;-2.402;2023-08-21T06:07:49;6.07;;;2.17;;
48881;SDS011;57063;51.406;-2.402;2023-08-21T06:10:15;4.13;;;2.20;;
48881;SDS011;57063;51.406;-2.402;2023-08-21T06:12:40;4.22;;;2.00;;
48881;SDS011;57063;51.406;-2.402;2023-08-21T06:15:24;11.20;;;2.80;;
48881;SDS011;57063;51.406;-2.402;2023-08-21T06:17:49;10.50;;;2.58;;
48881;SDS011;57063;51.406;-2.402;2023-08-21T06:20:15;8.27;;;2.92;;
48881;SDS011;57063;51.406;-2.402;2023-08-21T06:22:40;8.85;;;2.47;;
48881;SDS011;57063;51.406;-2.402;2023-08-21T06:25:05;11.43;;;3.78;;
48881;SDS011;57063;51.406;-2.402;2023-08-21T06:27:31;8.40;;;2.65;;
48881;SDS011;57063;51.406;-2.402;2023-08-21T06:29:56;10.13;;;2.67;;
48881;SDS011;57063;51.406;-2.402;2023-08-21T06:32:22;5.40;;;2.22;;
48881;SDS011;57063;51.406;-2.402;2023-08-21T06:34:48;8.63;;;2.60;;
48881;SDS011;57063;51.406;-2.402;2023-08-21T06:37:13;9.60;;;3.15;;
48881;SDS011;57063;51.406;-2.402;2023-08-21T06:39:39;7.28;;;2.63;;
48881;SDS011;57063;51.406;-2.402;2023-08-21T06:42:04;9.88;;;2.88;;
48881;SDS011;57063;51.406;-2.402;2023-08-21T06:44:30;12.00;;;2.58;;
48881;SDS011;57063;51.406;-2.402;2023-08-21T06:46:55;6.35;;;2.50;;
48881;SDS011;57063;51.406;-2.402;2023-08-21T06:49:21;7.10;;;2.35;;
48881;SDS011;57063;51.406;-2.402;2023-08-21T06:51:46;4.90;;;2.30;;
48881;SDS011;57063;51.406;-2.402;2023-08-21T06:54:11;13.85;;;2.30;;
48881;SDS011;57063;51.406;-2.402;2023-08-21T06:56:37;9.35;;;2.17;;
48881;SDS011;57063;51.406;-2.402;2023-08-21T06:59:08;7.07;;;2.90;;
48881;SDS011;57063;51.406;-2.402;2023-08-21T07:01:34;9.43;;;2.55;;
48881;SDS011;57063;51.406;-2.402;2023-08-21T07:04:00;4.97;;;2.42;;
48881;SDS011;57063;51.406;-2.402;2023-08-21T07:06:27;7.43;;;2.13;;
48881;SDS011;57063;51.406;-2.402;2023-08-21T07:08:54;6.22;;;2.45;;
48881;SDS011;57063;51.406;-2.402;2023-08-21T07:11:19;7.32;;;2.33;;
48881;SDS011;57063;51.406;-2.402;2023-08-21T07:13:44;8.82;;;2.42;;
48881;SDS011;57063;51.406;-2.402;2023-08-21T07:16:10;8.38;;;2.10;;
48881;SDS011;57063;51.406;-2.402;2023-08-21T07:18:35;5.93;;;1.83;;
48881;SDS011;57063;51.406;-2.402;2023-08-21T07:21:01;4.55;;;1.90;;
48881;SDS011;57063;51.406;-2.402;2023-08-21T07:23:29;8.60;;;1.73;;
48881;SDS011;57063;51.406;-2.402;2023-08-21T07:25:54;8.82;;;2.28;;
48881;SDS011;57063;51.406;-2.402;2023-08-21T07:28:20;6.82;;;2.10;;
48881;SDS011;57063;51.406;-2.402;2023-08-21T07:30:45;5.90;;;1.95;;
48881;SDS011;57063;51.406;-2.402;2023-08-21T07:33:11;5.60;;;2.17;;
48881;SDS011;57063;51.406;-2.402;2023-08-21T07:35:36;4.40;;;1.55;;
48881;SDS011;57063;51.406;-2.402;2023-08-21T07:38:02;7.35;;;2.03;;
48881;SDS011;57063;51.406;-2.402;2023-08-21T07:40:28;9.13;;;1.58;;
48881;SDS011;57063;51.406;-2.402;2023-08-21T07:42:53;11.93;;;2.60;;
48881;SDS011;57063;51.406;-2.402;2023-08-21T07:45:19;8.25;;;2.15;;
48881;SDS011;57063;51.406;-2.402;2023-08-21T07:47:44;10.80;;;2.22;;
48881;SDS011;57063;51.406;-2.402;2023-08-21T07:50:10;9.63;;;2.28;;
48881;SDS011;57063;51.406;-2.402;2023-08-21T07:52:35;8.52;;;1.98;;
48881;SDS011;57063;51.406;-2.402;2023-08-21T07:55:01;7.57;;;2.22;;
48881;SDS011;57063;51.406;-2.402;2023-08-21T07:57:27;10.00;;;3.25;;
48881;SDS011;57063;51.406;-2.402;2023-08-21T07:59:54;12.25;;;2.10;;
48881;SDS011;57063;51.406;-2.402;2023-08-21T08:02:19;8.05;;;1.83;;
48881;SDS011;57063;51.406;-2.402;2023-08-21T08:04:45;8.65;;;2.20;;
48881;SDS011;57063;51.406;-2.402;2023-08-21T08:07:11;9.18;;;2.17;;
48881;SDS011;57063;51.406;-2.402;2023-08-21T08:09:37;6.13;;;2.40;;
48881;SDS011;57063;51.406;-2.402;2023-08-21T08:12:02;8.18;;;2.30;;
48881;SDS011;57063;51.406;-2.402;2023-08-21T08:14:28;7.35;;;2.10;;
48881;SDS011;57063;51.406;-2.402;2023-08-21T08:16:54;8.48;;;2.10;;
48881;SDS011;57063;51.406;-2.402;2023-08-21T08:19:19;7.18;;;1.92;;
48881;SDS011;57063;51.406;-2.402;2023-08-21T08:21:45;6.90;;;2.22;;
48881;SDS011;57063;51.406;-2.402;2023-08-21T08:24:10;5.75;;;1.40;;
48881;SDS011;57063;51.406;-2.402;2023-08-21T08:26:38;7.82;;;1.90;;
48881;SDS011;57063;51.406;-2.402;2023-08-21T08:29:04;8.32;;;2.08;;
48881;SDS011;57063;51.406;-2.402;2023-08-21T08:31:35;11.30;;;1.85;;
48881;SDS011;57063;51.406;-2.402;2023-08-21T08:34:06;4.05;;;1.33;;
48881;SDS011;57063;51.406;-2.402;2023-08-21T08:36:31;6.55;;;1.70;;
48881;SDS011;57063;51.406;-2.402;2023-08-21T08:38:57;6.28;;;1.92;;
48881;SDS011;57063;51.406;-2.402;2023-08-21T08:41:30;5.93;;;1.40;;
48881;SDS011;57063;51.406;-2.402;2023-08-21T08:43:57;6.18;;;1.25;;
48881;SDS011;57063;51.406;-2.402;2023-08-21T08:46:25;10.18;;;1.33;;
48881;SDS011;57063;51.406;-2.402;2023-08-21T08:48:54;5.55;;;1.20;;
48881;SDS011;57063;51.406;-2.402;2023-08-21T08:51:20;5.15;;;1.25;;
48881;SDS011;57063;51.406;-2.402;2023-08-21T08:53:55;4.03;;;1.10;;
48881;SDS011;57063;51.406;-2.402;2023-08-21T08:56:28;4.93;;;1.27;;
48881;SDS011;57063;51.406;-2.402;2023-08-21T08:58:54;8.57;;;1.23;;
48881;SDS011;57063;51.406;-2.402;2023-08-21T09:01:28;9.20;;;1.80;;
48881;SDS011;57063;51.406;-2.402;2023-08-21T09:04:06;5.82;;;1.00;;
48881;SDS011;57063;51.406;-2.402;2023-08-21T09:06:52;3.15;;;0.95;;
48881;SDS011;57063;51.406;-2.402;2023-08-21T09:09:47;4.27;;;1.00;;
48881;SDS011;57063;51.406;-2.402;2023-08-21T09:12:15;4.22;;;1.10;;
48881;SDS011;57063;51.406;-2.402;2023-08-21T09:14:45;3.27;;;0.87;;
48881;SDS011;57063;51.406;-2.402;2023-08-21T09:17:14;4.22;;;1.23;;
48881;SDS011;57063;51.406;-2.402;2023-08-21T09:19:46;4.15;;;1.38;;
48881;SDS011;57063;51.406;-2.402;2023-08-21T09:22:15;1.90;;;0.75;;
48881;SDS011;57063;51.406;-2.402;2023-08-21T09:27:31;3.17;;;0.90;;
48881;SDS011;57063;51.406;-2.402;2023-08-21T09:29:57;4.82;;;1.00;;
48881;SDS011;57063;51.406;-2.402;2023-08-21T09:32:22;4.50;;;1.20;;
48881;SDS011;57063;51.406;-2.402;2023-08-21T09:34:48;3.88;;;0.90;;
48881;SDS011;57063;51.406;-2.402;2023-08-21T09:37:13;3.58;;;0.93;;
48881;SDS011;57063;51.406;-2.402;2023-08-21T09:39:38;3.55;;;0.70;;
48881;SDS011;57063;51.406;-2.402;2023-08-21T09:42:07;5.60;;;1.17;;
48881;SDS011;57063;51.406;-2.402;2023-08-21T09:44:39;4.85;;;1.00;;
48881;SDS011;57063;51.406;-2.402;2023-08-21T09:47:09;3.80;;;0.70;;
48881;SDS011;57063;51.406;-2.402;2023-08-21T09:49:36;4.55;;;0.90;;
48881;SDS011;57063;51.406;-2.402;2023-08-21T09:52:03;7.43;;;1.00;;
48881;SDS011;57063;51.406;-2.402;2023-08-21T09:54:30;4.60;;;0.88;;
48881;SDS011;57063;51.406;-2.402;2023-08-21T09:57:00;4.72;;;1.00;;
48881;SDS011;57063;51.406;-2.402;2023-08-21T09:59:27;2.00;;;0.60;;
48881;SDS011;57063;51.406;-2.402;2023-08-21T10:01:53;2.08;;;0.70;;
48881;SDS011;57063;51.406;-2.402;2023-08-21T10:04:22;5.32;;;1.08;;
48881;SDS011;57063;51.406;-2.402;2023-08-21T10:06:48;4.13;;;0.90;;
48881;SDS011;57063;51.406;-2.402;2023-08-21T10:09:19;3.80;;;0.80;;
48881;SDS011;57063;51.406;-2.402;2023-08-21T10:11:46;3.85;;;0.60;;
48881;SDS011;57063;51.406;-2.402;2023-08-21T10:14:13;4.53;;;0.85;;
48881;SDS011;57063;51.406;-2.402;2023-08-21T10:16:38;7.75;;;1.30;;
48881;SDS011;57063;51.406;-2.402;2023-08-21T10:19:04;5.10;;;1.23;;
48881;SDS011;57063;51.406;-2.402;2023-08-21T10:21:35;4.57;;;0.98;;
48881;SDS011;57063;51.406;-2.402;2023-08-21T10:24:04;1.98;;;0.68;;
48881;SDS011;57063;51.406;-2.402;2023-08-21T10:26:30;5.03;;;0.80;;
48881;SDS011;57063;51.406;-2.402;2023-08-21T10:28:59;3.38;;;0.90;;
48881;SDS011;57063;51.406;-2.402;2023-08-21T10:31:37;3.03;;;0.60;;
48881;SDS011;57063;51.406;-2.402;2023-08-21T10:34:13;7.88;;;1.45;;
48881;SDS011;57063;51.406;-2.402;2023-08-21T10:39:20;3.05;;;0.60;;
48881;SDS011;57063;51.406;-2.402;2023-08-21T10:44:33;3.65;;;0.88;;
48881;SDS011;57063;51.406;-2.402;2023-08-21T10:49:45;3.70;;;0.93;;
48881;SDS011;57063;51.406;-2.402;2023-08-21T10:52:22;4.28;;;0.90;;
48881;SDS011;57063;51.406;-2.402;2023-08-21T10:54:54;2.90;;;0.75;;
48881;SDS011;57063;51.406;-2.402;2023-08-21T10:57:21;4.95;;;1.08;;
48881;SDS011;57063;51.406;-2.402;2023-08-21T11:02:28;3.65;;;0.63;;
48881;SDS011;57063;51.406;-2.402;2023-08-21T11:04:54;4.60;;;0.90;;
48881;SDS011;57063;51.406;-2.402;2023-08-21T11:07:20;7.15;;;1.13;;
48881;SDS011;57063;51.406;-2.402;2023-08-21T11:09:46;5.00;;;1.05;;
48881;SDS011;57063;51.406;-2.402;2023-08-21T11:12:14;5.55;;;1.15;;
48881;SDS011;57063;51.406;-2.402;2023-08-21T11:14:41;4.90;;;0.65;;
48881;SDS011;57063;51.406;-2.402;2023-08-21T11:17:08;2.05;;;0.50;;
48881;SDS011;57063;51.406;-2.402;2023-08-21T11:19:35;3.65;;;0.80;;
48881;SDS011;57063;51.406;-2.402;2023-08-21T11:22:01;4.85;;;0.80;;
48881;SDS011;57063;51.406;-2.402;2023-08-21T11:27:03;4.45;;;0.90;;
48881;SDS011;57063;51.406;-2.402;2023-08-21T11:29:38;7.82;;;1.17;;
48881;SDS011;57063;51.406;-2.402;2023-08-21T11:32:16;4.88;;;1.23;;
48881;SDS011;57063;51.406;-2.402;2023-08-21T11:34:53;3.03;;;1.00;;
48881;SDS011;57063;51.406;-2.402;2023-08-21T11:37:20;4.95;;;1.15;;
48881;SDS011;57063;51.406;-2.402;2023-08-21T11:39:56;5.07;;;1.30;;
48881;SDS011;57063;51.406;-2.402;2023-08-21T11:42:30;2.05;;;0.82;;
48881;SDS011;57063;51.406;-2.402;2023-08-21T11:44:56;5.00;;;1.23;;
48881;SDS011;57063;51.406;-2.402;2023-08-21T11:47:22;5.35;;;0.77;;
48881;SDS011;57063;51.406;-2.402;2023-08-21T11:49:49;4.38;;;0.98;;
48881;SDS011;57063;51.406;-2.402;2023-08-21T11:52:22;4.28;;;0.68;;
48881;SDS011;57063;51.406;-2.402;2023-08-21T11:54:51;2.60;;;0.90;;
48881;SDS011;57063;51.406;-2.402;2023-08-21T11:57:17;3.92;;;0.80;;
48881;SDS011;57063;51.406;-2.402;2023-08-21T11:59:48;6.22;;;1.13;;
48881;SDS011;57063;51.406;-2.402;2023-08-21T12:02:24;5.10;;;0.77;;
48881;SDS011;57063;51.406;-2.402;2023-08-21T12:05:05;4.80;;;0.93;;
48881;SDS011;57063;51.406;-2.402;2023-08-21T12:07:32;5.90;;;1.33;;
48881;SDS011;57063;51.406;-2.402;2023-08-21T12:09:58;3.25;;;0.80;;
48881;SDS011;57063;51.406;-2.402;2023-08-21T12:12:24;5.82;;;1.00;;
48881;SDS011;57063;51.406;-2.402;2023-08-21T12:14:49;6.13;;;0.93;;
48881;SDS011;57063;51.406;-2.402;2023-08-21T12:17:15;3.10;;;1.15;;
48881;SDS011;57063;51.406;-2.402;2023-08-21T12:19:40;4.28;;;1.27;;
48881;SDS011;57063;51.406;-2.402;2023-08-21T12:22:07;2.97;;;1.05;;
48881;SDS011;57063;51.406;-2.402;2023-08-21T12:24:32;6.95;;;1.35;;
48881;SDS011;57063;51.406;-2.402;2023-08-21T12:26:57;8.02;;;1.80;;
48881;SDS011;57063;51.406;-2.402;2023-08-21T12:29:23;5.00;;;1.00;;
48881;SDS011;57063;51.406;-2.402;2023-08-21T12:31:48;5.65;;;1.25;;
48881;SDS011;57063;51.406;-2.402;2023-08-21T12:34:14;4.97;;;1.33;;
48881;SDS011;57063;51.406;-2.402;2023-08-21T12:36:39;4.95;;;1.20;;
48881;SDS011;57063;51.406;-2.402;2023-08-21T12:39:05;6.93;;;1.58;;
48881;SDS011;57063;51.406;-2.402;2023-08-21T12:41:32;6.43;;;1.33;;
48881;SDS011;57063;51.406;-2.402;2023-08-21T12:44:01;6.25;;;1.52;;
48881;SDS011;57063;51.406;-2.402;2023-08-21T12:46:33;6.05;;;1.10;;
48881;SDS011;57063;51.406;-2.402;2023-08-21T12:48:59;7.60;;;1.25;;
48881;SDS011;57063;51.406;-2.402;2023-08-21T12:51:26;3.63;;;1.00;;
48881;SDS011;57063;51.406;-2.402;2023-08-21T12:53:52;5.43;;;1.80;;
48881;SDS011;57063;51.406;-2.402;2023-08-21T12:56:17;4.75;;;1.27;;
48881;SDS011;57063;51.406;-2.402;2023-08-21T12:58:43;4.10;;;0.95;;
48881;SDS011;57063;51.406;-2.402;2023-08-21T13:01:09;3.83;;;0.80;;
48881;SDS011;57063;51.406;-2.402;2023-08-21T13:03:34;4.43;;;1.08;;
48881;SDS011;57063;51.406;-2.402;2023-08-21T13:06:00;2.88;;;1.20;;
48881;SDS011;57063;51.406;-2.402;2023-08-21T13:08:25;3.63;;;1.10;;
48881;SDS011;57063;51.406;-2.402;2023-08-21T13:10:52;4.47;;;1.00;;
48881;SDS011;57063;51.406;-2.402;2023-08-21T13:13:17;5.55;;;0.80;;
48881;SDS011;57063;51.406;-2.402;2023-08-21T13:15:43;7.60;;;1.00;;
48881;SDS011;57063;51.406;-2.402;2023-08-21T13:18:10;6.20;;;1.50;;
48881;SDS011;57063;51.406;-2.402;2023-08-21T13:20:36;5.53;;;1.02;;
48881;SDS011;57063;51.406;-2.402;2023-08-21T13:23:02;3.20;;;0.60;;
48881;SDS011;57063;51.406;-2.402;2023-08-21T13:25:27;6.85;;;0.95;;
48881;SDS011;57063;51.406;-2.402;2023-08-21T13:27:54;5.82;;;0.88;;
48881;SDS011;57063;51.406;-2.402;2023-08-21T13:30:19;7.95;;;1.08;;
48881;SDS011;57063;51.406;-2.402;2023-08-21T13:32:45;4.90;;;0.82;;
48881;SDS011;57063;51.406;-2.402;2023-08-21T13:35:11;4.70;;;1.02;;
48881;SDS011;57063;51.406;-2.402;2023-08-21T13:37:37;3.33;;;1.33;;
48881;SDS011;57063;51.406;-2.402;2023-08-21T13:40:03;5.60;;;2.47;;
48881;SDS011;57063;51.406;-2.402;2023-08-21T13:42:39;3.28;;;1.60;;
48881;SDS011;57063;51.406;-2.402;2023-08-21T13:45:09;5.38;;;0.70;;
48881;SDS011;57063;51.406;-2.402;2023-08-21T13:47:37;6.85;;;0.70;;
48881;SDS011;57063;51.406;-2.402;2023-08-21T13:50:06;5.40;;;1.00;;
48881;SDS011;57063;51.406;-2.402;2023-08-21T13:52:32;2.97;;;0.70;;
48881;SDS011;57063;51.406;-2.402;2023-08-21T13:55:05;5.80;;;0.60;;
48881;SDS011;57063;51.406;-2.402;2023-08-21T14:05:49;5.40;;;0.65;;
48881;SDS011;57063;51.406;-2.402;2023-08-21T14:08:14;8.63;;;0.70;;
48881;SDS011;57063;51.406;-2.402;2023-08-21T14:10:39;3.03;;;0.70;;
48881;SDS011;57063;51.406;-2.402;2023-08-21T14:13:05;7.30;;;0.60;;
48881;SDS011;57063;51.406;-2.402;2023-08-21T14:15:32;5.20;;;0.55;;
48881;SDS011;57063;51.406;-2.402;2023-08-21T14:17:58;2.10;;;0.40;;
48881;SDS011;57063;51.406;-2.402;2023-08-21T14:20:24;2.80;;;0.45;;
48881;SDS011;57063;51.406;-2.402;2023-08-21T14:22:49;3.30;;;0.80;;
48881;SDS011;57063;51.406;-2.402;2023-08-21T14:25:15;3.78;;;0.40;;
48881;SDS011;57063;51.406;-2.402;2023-08-21T14:27:40;3.72;;;0.60;;
48881;SDS011;57063;51.406;-2.402;2023-08-21T14:30:09;2.72;;;0.80;;
48881;SDS011;57063;51.406;-2.402;2023-08-21T14:32:44;11.18;;;1.20;;
48881;SDS011;57063;51.406;-2.402;2023-08-21T14:35:15;2.63;;;0.70;;
48881;SDS011;57063;51.406;-2.402;2023-08-21T14:37:41;2.63;;;0.50;;
48881;SDS011;57063;51.406;-2.402;2023-08-21T14:40:06;4.85;;;0.95;;
48881;SDS011;57063;51.406;-2.402;2023-08-21T14:42:33;3.55;;;0.80;;
48881;SDS011;57063;51.406;-2.402;2023-08-21T14:44:59;4.20;;;0.85;;
48881;SDS011;57063;51.406;-2.402;2023-08-21T14:47:24;3.08;;;0.60;;
48881;SDS011;57063;51.406;-2.402;2023-08-21T14:49:50;2.10;;;0.60;;
48881;SDS011;57063;51.406;-2.402;2023-08-21T14:52:16;4.95;;;0.55;;
48881;SDS011;57063;51.406;-2.402;2023-08-21T14:54:41;2.65;;;0.70;;
48881;SDS011;57063;51.406;-2.402;2023-08-21T14:57:07;6.82;;;0.73;;
48881;SDS011;57063;51.406;-2.402;2023-08-21T14:59:33;4.15;;;0.63;;
48881;SDS011;57063;51.406;-2.402;2023-08-21T15:01:59;5.13;;;0.82;;